createdAt,value
2023-03-03T00:03:29.061Z,2.09
2023-03-03T00:08:33.064Z,2.10
2023-03-03T00:13:44.230Z,2.11
2023-03-03T00:18:48.836Z,2.06
2023-03-03T00:23:51.674Z,2.08
2023-03-03T00:28:56.905Z,2.07
2023-03-03T00:34:06.246Z,2.06
2023-03-03T00:39:19.770Z,2.07
2023-03-03T00:44:42.453Z,2.04
2023-03-03T00:49:46.708Z,2.05
2023-03-03T00:54:49.638Z,2.02
2023-03-03T00:59:52.499Z,1.98
2023-03-03T01:04:57.566Z,1.92
2023-03-03T01:10:00.436Z,1.89
2023-03-03T01:15:03.358Z,1.84
2023-03-03T01:20:09.130Z,1.84
2023-03-03T01:25:12.052Z,1.82
2023-03-03T01:30:15.707Z,1.78
2023-03-03T01:35:20.405Z,1.76
2023-03-03T01:40:25.704Z,1.74
2023-03-03T01:45:29.913Z,1.73
2023-03-03T01:50:43.517Z,1.71
2023-03-03T01:55:47.484Z,1.67
2023-03-03T02:00:52.358Z,1.64
2023-03-03T02:05:59.200Z,1.49
2023-03-03T02:11:02.336Z,1.58
2023-03-03T02:16:05.698Z,1.57
2023-03-03T02:21:12.453Z,1.52
2023-03-03T02:26:18.730Z,1.50
2023-03-03T02:31:24.072Z,1.41
2023-03-03T02:36:29.606Z,1.40
2023-03-03T02:41:36.063Z,1.40
2023-03-03T02:46:42.077Z,1.37
2023-03-03T02:51:45.407Z,1.35
2023-03-03T02:56:50.147Z,1.31
2023-03-03T03:01:54.346Z,1.23
2023-03-03T03:06:57.659Z,1.10
2023-03-03T03:12:05.227Z,1.05
2023-03-03T03:17:11.638Z,1.07
2023-03-03T03:22:15.184Z,1.06
2023-03-03T03:27:20.395Z,0.98
2023-03-03T03:32:24.690Z,0.94
2023-03-03T03:37:27.824Z,1.00
2023-03-03T03:42:32.270Z,0.95
2023-03-03T03:47:35.277Z,0.92
2023-03-03T03:52:38.610Z,0.88
2023-03-03T03:57:43.249Z,0.87
2023-03-03T04:02:46.329Z,0.92
2023-03-03T04:07:51.637Z,0.81
2023-03-03T04:12:56.946Z,0.77
2023-03-03T04:18:00.681Z,0.81
2023-03-03T04:23:04.277Z,0.80
2023-03-03T04:28:10.674Z,0.87
2023-03-03T04:33:14.302Z,0.75
2023-03-03T04:38:17.770Z,0.77
2023-03-03T04:43:23.679Z,0.77
2023-03-03T04:48:26.715Z,0.76
2023-03-03T04:53:29.944Z,0.75
2023-03-03T04:58:34.403Z,0.73
2023-03-03T05:03:38.033Z,0.72
2023-03-03T05:08:43.174Z,0.75
2023-03-03T05:13:47.516Z,0.73
2023-03-03T05:18:50.343Z,0.78
2023-03-03T05:23:53.660Z,0.85
2023-03-03T05:28:57.900Z,0.89
2023-03-03T05:34:00.720Z,0.85
2023-03-03T05:39:03.691Z,0.83
2023-03-03T05:44:08.139Z,0.80
2023-03-03T05:49:11.115Z,0.75
2023-03-03T05:54:14.077Z,0.75
2023-03-03T05:59:19.127Z,0.78
2023-03-03T06:04:22.197Z,0.87
2023-03-03T06:09:26.300Z,0.79
2023-03-03T06:14:30.597Z,0.79
2023-03-03T06:19:33.548Z,0.71
2023-03-03T06:24:36.494Z,0.62
2023-03-03T06:29:40.790Z,0.58
2023-03-03T06:34:43.723Z,0.52
2023-03-03T06:39:46.708Z,0.54
2023-03-03T06:44:50.952Z,0.52
2023-03-03T06:49:53.934Z,0.59
2023-03-03T06:54:59.539Z,0.62
2023-03-03T07:00:16.764Z,0.63
2023-03-03T07:05:20.211Z,0.78
2023-03-03T07:10:26.136Z,0.87
2023-03-03T07:15:35.391Z,1.12
2023-03-03T07:20:41.081Z,1.32
2023-03-03T07:25:46.736Z,1.42
2023-03-03T07:30:51.167Z,1.51
2023-03-03T07:35:55.228Z,1.50
2023-03-03T07:40:59.969Z,1.50
2023-03-03T07:46:24.245Z,1.61
2023-03-03T07:51:29.402Z,1.67
2023-03-03T07:56:36.057Z,1.83
2023-03-03T08:01:42.733Z,1.98
2023-03-03T08:06:50.714Z,2.12
2023-03-03T08:11:56.484Z,2.27
2023-03-03T08:17:01.992Z,2.45
2023-03-03T08:22:13.866Z,2.62
2023-03-03T08:27:16.814Z,2.81
2023-03-03T08:32:21.322Z,3.01
2023-03-03T08:37:24.301Z,3.21
2023-03-03T08:42:30.062Z,3.35
2023-03-03T08:47:34.427Z,3.56
2023-03-03T08:52:37.345Z,3.75
2023-03-03T08:57:40.596Z,3.95
2023-03-03T09:02:44.923Z,4.15
2023-03-03T09:07:48.986Z,4.34
2023-03-03T09:12:51.874Z,4.57
2023-03-03T09:17:56.711Z,4.82
2023-03-03T09:22:59.838Z,5.16
2023-03-03T09:28:03.269Z,5.46
2023-03-03T09:33:25.078Z,5.78
2023-03-03T09:38:30.661Z,6.04
2023-03-03T09:43:37.606Z,6.31
2023-03-03T09:48:50.771Z,6.58
2023-03-03T09:54:05.197Z,7.00
2023-03-03T09:59:21.041Z,6.86
2023-03-03T10:04:56.392Z,7.02
2023-03-03T10:10:07.822Z,7.82
2023-03-03T10:15:19.984Z,7.81
2023-03-03T10:20:52.290Z,7.82
2023-03-03T10:26:04.884Z,7.74
2023-03-03T10:31:17.249Z,7.49
2023-03-03T10:36:36.451Z,7.21
2023-03-03T10:41:48.738Z,7.81
2023-03-03T10:47:18.821Z,8.39
2023-03-03T10:52:34.049Z,8.66
2023-03-03T10:57:42.148Z,9.33
2023-03-03T11:02:54.847Z,9.48
2023-03-03T11:08:03.311Z,9.20
2023-03-03T11:13:13.722Z,9.15
2023-03-03T11:18:30.450Z,9.15
2023-03-03T11:24:05.326Z,9.12
2023-03-03T11:29:17.580Z,8.91
2023-03-03T11:34:34.024Z,8.86
2023-03-03T11:39:38.857Z,8.93
2023-03-03T11:44:44.040Z,8.98
2023-03-03T11:49:51.663Z,8.94
2023-03-03T11:54:58.910Z,8.88
2023-03-03T12:00:08.372Z,8.76
2023-03-03T12:05:28.201Z,8.64
2023-03-03T12:10:36.332Z,8.68
2023-03-03T12:15:42.843Z,8.72
2023-03-03T12:20:51.609Z,8.72
2023-03-03T12:26:01.127Z,8.80
2023-03-03T12:31:14.639Z,8.79
2023-03-03T12:36:26.736Z,8.89
2023-03-03T12:41:37.085Z,8.93
2023-03-03T12:46:46.206Z,8.96
2023-03-03T12:52:05.717Z,9.12
2023-03-03T12:57:17.490Z,8.99
2023-03-03T13:02:54.583Z,8.98
2023-03-03T13:08:06.390Z,9.10
2023-03-03T13:13:14.985Z,9.13
2023-03-03T13:18:29.803Z,8.94
2023-03-03T13:23:39.896Z,8.93
2023-03-03T13:28:52.644Z,9.18
2023-03-03T13:33:57.158Z,9.23
2023-03-03T13:39:05.758Z,9.21
2023-03-03T13:44:13.353Z,9.20
2023-03-03T13:49:26.022Z,9.00
2023-03-03T13:55:02.587Z,9.23
2023-03-03T14:00:17.693Z,9.22
2023-03-03T14:05:27.518Z,9.15
2023-03-03T14:10:33.193Z,9.19
2023-03-03T14:15:45.099Z,9.01
2023-03-03T14:20:50.767Z,8.94
2023-03-03T14:26:00.836Z,8.98
2023-03-03T14:31:17.362Z,8.90
2023-03-03T14:36:30.254Z,8.95
2023-03-03T14:41:40.281Z,8.99
2023-03-03T14:46:45.101Z,8.94
2023-03-03T14:51:50.046Z,8.79
2023-03-03T14:57:07.167Z,8.69
2023-03-03T15:02:38.955Z,8.68
2023-03-03T15:07:41.943Z,8.72
2023-03-03T15:12:44.812Z,8.67
2023-03-03T15:17:58.885Z,8.67
2023-03-03T15:23:13.495Z,8.61
2023-03-03T15:28:27.481Z,8.51
2023-03-03T15:33:34.938Z,8.41
2023-03-03T15:38:45.104Z,8.38
2023-03-03T15:43:57.466Z,8.25
2023-03-03T15:49:15.768Z,8.16
2023-03-03T15:54:30.993Z,8.13
2023-03-03T15:59:58.123Z,8.09
2023-03-03T16:05:08.897Z,7.99
2023-03-03T16:10:20.690Z,7.88
2023-03-03T16:15:38.845Z,7.76
2023-03-03T16:20:47.529Z,7.68
2023-03-03T16:26:09.438Z,7.64
2023-03-03T16:31:18.606Z,7.56
2023-03-03T16:36:29.502Z,7.52
2023-03-03T16:41:41.469Z,7.41
2023-03-03T16:46:47.328Z,7.32
2023-03-03T16:51:54.732Z,7.24
2023-03-03T16:57:05.125Z,7.19
2023-03-03T17:02:20.310Z,7.09
2023-03-03T17:07:38.056Z,7.09
2023-03-03T17:12:53.447Z,7.00
2023-03-03T17:18:02.774Z,6.95
2023-03-03T17:23:20.973Z,6.93
2023-03-03T17:28:33.348Z,6.88
2023-03-03T17:33:44.310Z,6.84
2023-03-03T17:38:58.931Z,6.82
2023-03-03T17:44:05.254Z,6.78
2023-03-03T17:49:35.372Z,6.73
2023-03-03T17:54:54.571Z,6.78
2023-03-03T18:00:05.427Z,6.70
2023-03-03T18:05:53.201Z,6.67
2023-03-03T18:11:23.344Z,6.66
2023-03-03T18:16:37.563Z,6.61
2023-03-03T18:21:45.150Z,6.66
2023-03-03T18:26:50.598Z,6.69
2023-03-03T18:32:23.549Z,6.72
2023-03-03T18:37:40.696Z,6.72
2023-03-03T18:42:45.356Z,6.68
2023-03-03T18:48:16.104Z,6.69
2023-03-03T18:53:23.178Z,6.67
2023-03-03T18:58:34.438Z,6.65
2023-03-03T19:03:38.939Z,6.62
2023-03-03T19:08:51.295Z,6.59
2023-03-03T19:14:15.853Z,6.59
2023-03-03T19:19:20.240Z,6.65
2023-03-03T19:24:33.721Z,6.62
2023-03-03T19:29:58.256Z,6.61
2023-03-03T19:35:10.697Z,6.63
2023-03-03T19:40:20.550Z,6.64
2023-03-03T19:45:35.929Z,6.61
2023-03-03T19:50:46.844Z,6.60
2023-03-03T19:56:00.225Z,6.60
2023-03-03T20:01:08.860Z,6.61
2023-03-03T20:06:25.004Z,6.60
2023-03-03T20:11:38.393Z,6.61
2023-03-03T20:16:44.860Z,6.66
2023-03-03T20:21:53.466Z,6.63
2023-03-03T20:26:58.954Z,6.61
2023-03-03T20:32:11.237Z,6.62
2023-03-03T20:37:17.401Z,6.57
2023-03-03T20:42:29.493Z,6.56
2023-03-03T20:47:40.894Z,6.54
2023-03-03T20:52:53.295Z,6.56
2023-03-03T20:58:01.218Z,6.53
2023-03-03T21:03:12.113Z,6.51
2023-03-03T21:08:14.994Z,6.51
2023-03-03T21:13:29.428Z,6.53
2023-03-03T21:18:33.770Z,6.51
2023-03-03T21:23:36.643Z,6.53
2023-03-03T21:28:39.492Z,6.56
2023-03-03T21:33:49.666Z,6.57
2023-03-03T21:38:54.198Z,6.58
2023-03-03T21:43:57.092Z,6.53
2023-03-03T21:49:01.385Z,6.53
2023-03-03T21:54:04.356Z,6.52
2023-03-03T21:59:07.175Z,6.50
2023-03-03T22:04:11.392Z,6.48
2023-03-03T22:09:14.388Z,6.52
2023-03-03T22:14:17.312Z,6.52
2023-03-03T22:19:21.624Z,6.53
2023-03-03T22:24:24.424Z,6.51
2023-03-03T22:29:27.341Z,6.49
2023-03-03T22:34:31.528Z,6.48
2023-03-03T22:39:34.452Z,6.48
2023-03-03T22:44:37.373Z,6.47
2023-03-03T22:49:41.581Z,6.47
2023-03-03T22:54:44.375Z,6.49
2023-03-03T22:59:47.169Z,6.50
2023-03-03T23:04:57.649Z,6.52
2023-03-03T23:10:00.518Z,6.51
2023-03-03T23:15:04.501Z,6.51
2023-03-03T23:20:10.674Z,6.52
2023-03-03T23:25:13.764Z,6.52
2023-03-03T23:30:19.225Z,6.52
2023-03-03T23:35:23.551Z,6.52
2023-03-03T23:40:26.498Z,6.53
2023-03-03T23:45:29.317Z,6.48
2023-03-03T23:50:37.143Z,6.48
2023-03-03T23:55:39.980Z,6.45
